sensor_id;sensor_type;location;lat;lon;timestamp;pressure;altitude;pressure_sealevel;temperature
67509;BMP280;54354;44.724;11.284;2023-07-13T00:07:53;101282.19;;;33.36
67509;BMP280;54354;44.724;11.284;2023-07-13T00:10:20;101281.22;;;33.23
67509;BMP280;54354;44.724;11.284;2023-07-13T00:12:46;101276.66;;;33.18
67509;BMP280;54354;44.724;11.284;2023-07-13T00:15:24;101279.06;;;33.14
67509;BMP280;54354;44.724;11.284;2023-07-13T00:17:54;101275.25;;;33.10
67509;BMP280;54354;44.724;11.284;2023-07-13T00:20:22;101269.75;;;33.10
67509;BMP280;54354;44.724;11.284;2023-07-13T00:22:48;101267.75;;;33.10
67509;BMP280;54354;44.724;11.284;2023-07-13T00:25:15;101266.13;;;33.07
67509;BMP280;54354;44.724;11.284;2023-07-13T00:27:42;101272.34;;;33.08
67509;BMP280;54354;44.724;11.284;2023-07-13T00:30:09;101284.97;;;33.11
67509;BMP280;54354;44.724;11.284;2023-07-13T00:32:35;101284.22;;;33.10
67509;BMP280;54354;44.724;11.284;2023-07-13T00:35:01;101284.97;;;33.11
67509;BMP280;54354;44.724;11.284;2023-07-13T00:37:29;101272.34;;;33.08
67509;BMP280;54354;44.724;11.284;2023-07-13T00:39:54;101284.59;;;33.07
67509;BMP280;54354;44.724;11.284;2023-07-13T00:42:20;101288.66;;;33.06
67509;BMP280;54354;44.724;11.284;2023-07-13T00:45:04;101280.22;;;33.11
67509;BMP280;54354;44.724;11.284;2023-07-13T00:47:31;101296.16;;;33.05
67509;BMP280;54354;44.724;11.284;2023-07-13T00:49:57;101289.25;;;32.96
67509;BMP280;54354;44.724;11.284;2023-07-13T00:52:24;101288.19;;;32.92
67509;BMP280;54354;44.724;11.284;2023-07-13T00:54:50;101286.56;;;32.89
67509;BMP280;54354;44.724;11.284;2023-07-13T00:57:21;101278.91;;;32.87
67509;BMP280;54354;44.724;11.284;2023-07-13T00:59:52;101279.84;;;32.82
67509;BMP280;54354;44.724;11.284;2023-07-13T01:02:25;101280.38;;;32.81
67509;BMP280;54354;44.724;11.284;2023-07-13T01:04:51;101276.00;;;32.78
67509;BMP280;54354;44.724;11.284;2023-07-13T01:07:18;101260.66;;;32.75
67509;BMP280;54354;44.724;11.284;2023-07-13T01:09:44;101275.28;;;32.77
67509;BMP280;54354;44.724;11.284;2023-07-13T01:12:11;101284.81;;;32.76
67509;BMP280;54354;44.724;11.284;2023-07-13T01:14:36;101278.59;;;32.76
67509;BMP280;54354;44.724;11.284;2023-07-13T01:17:03;101256.47;;;32.74
67509;BMP280;54354;44.724;11.284;2023-07-13T01:19:36;101261.78;;;32.72
67509;BMP280;54354;44.724;11.284;2023-07-13T01:22:04;101249.38;;;32.71
67509;BMP280;54354;44.724;11.284;2023-07-13T01:24:32;101264.44;;;33.37
67509;BMP280;54354;44.724;11.284;2023-07-13T01:26:58;101274.13;;;32.88
67509;BMP280;54354;44.724;11.284;2023-07-13T01:29:23;101276.97;;;32.73
67509;BMP280;54354;44.724;11.284;2023-07-13T01:31:49;101287.97;;;32.65
67509;BMP280;54354;44.724;11.284;2023-07-13T01:34:14;101286.75;;;32.58
67509;BMP280;54354;44.724;11.284;2023-07-13T01:36:40;101293.34;;;32.55
67509;BMP280;54354;44.724;11.284;2023-07-13T01:39:06;101290.25;;;32.51
67509;BMP280;54354;44.724;11.284;2023-07-13T01:41:33;101290.78;;;32.50
67509;BMP280;54354;44.724;11.284;2023-07-13T01:43:59;101274.88;;;32.48
67509;BMP280;54354;44.724;11.284;2023-07-13T01:46:24;101267.22;;;32.47
67509;BMP280;54354;44.724;11.284;2023-07-13T01:48:51;101255.72;;;32.41
67509;BMP280;54354;44.724;11.284;2023-07-13T01:51:17;101262.53;;;32.40
67509;BMP280;54354;44.724;11.284;2023-07-13T01:53:44;101261.75;;;32.39
67509;BMP280;54354;44.724;11.284;2023-07-13T01:56:10;101261.94;;;32.41
67509;BMP280;54354;44.724;11.284;2023-07-13T01:58:35;101267.59;;;32.43
67509;BMP280;54354;44.724;11.284;2023-07-13T02:01:00;101258.66;;;32.43
67509;BMP280;54354;44.724;11.284;2023-07-13T02:03:27;101248.41;;;32.43
67509;BMP280;54354;44.724;11.284;2023-07-13T02:05:52;101256.63;;;32.43
67509;BMP280;54354;44.724;11.284;2023-07-13T02:08:18;101261.94;;;32.41
67509;BMP280;54354;44.724;11.284;2023-07-13T02:10:43;101261.75;;;32.39
67509;BMP280;54354;44.724;11.284;2023-07-13T02:13:09;101264.34;;;32.37
67509;BMP280;54354;44.724;11.284;2023-07-13T02:15:38;101251.78;;;32.26
67509;BMP280;54354;44.724;11.284;2023-07-13T02:18:04;101252.28;;;32.33
67509;BMP280;54354;44.724;11.284;2023-07-13T02:20:29;101250.47;;;32.27
67509;BMP280;54354;44.724;11.284;2023-07-13T02:22:55;101245.94;;;32.22
67509;BMP280;54354;44.724;11.284;2023-07-13T02:25:20;101247.78;;;32.20
67509;BMP280;54354;44.724;11.284;2023-07-13T02:27:48;101239.03;;;32.14
67509;BMP280;54354;44.724;11.284;2023-07-13T02:30:16;101251.81;;;32.11
67509;BMP280;54354;44.724;11.284;2023-07-13T02:32:41;101252.41;;;32.10
67509;BMP280;54354;44.724;11.284;2023-07-13T02:35:09;101252.00;;;32.06
67509;BMP280;54354;44.724;11.284;2023-07-13T02:37:37;101247.13;;;32.04
67509;BMP280;54354;44.724;11.284;2023-07-13T02:40:02;101252.41;;;32.02
67509;BMP280;54354;44.724;11.284;2023-07-13T02:42:34;101263.91;;;32.01
67509;BMP280;54354;44.724;11.284;2023-07-13T02:45:00;101265.19;;;32.00
67509;BMP280;54354;44.724;11.284;2023-07-13T02:47:25;101261.72;;;31.99
67509;BMP280;54354;44.724;11.284;2023-07-13T02:49:52;101259.38;;;31.95
67509;BMP280;54354;44.724;11.284;2023-07-13T02:52:18;101263.34;;;31.94
67509;BMP280;54354;44.724;11.284;2023-07-13T02:54:43;101271.06;;;31.96
67509;BMP280;54354;44.724;11.284;2023-07-13T02:57:09;101268.69;;;31.92
67509;BMP280;54354;44.724;11.284;2023-07-13T02:59:35;101267.75;;;31.98
67509;BMP280;54354;44.724;11.284;2023-07-13T03:02:02;101261.94;;;31.93
67509;BMP280;54354;44.724;11.284;2023-07-13T03:04:29;101245.66;;;31.95
67509;BMP280;54354;44.724;11.284;2023-07-13T03:06:54;101246.91;;;31.94
67509;BMP280;54354;44.724;11.284;2023-07-13T03:09:25;101246.41;;;31.96
67509;BMP280;54354;44.724;11.284;2023-07-13T03:11:53;101240.56;;;31.92
67509;BMP280;54354;44.724;11.284;2023-07-13T03:14:25;101246.91;;;31.94
67509;BMP280;54354;44.724;11.284;2023-07-13T03:16:51;101244.75;;;31.93
67509;BMP280;54354;44.724;11.284;2023-07-13T03:19:19;101248.78;;;31.92
67509;BMP280;54354;44.724;11.284;2023-07-13T03:21:48;101235.81;;;31.92
67509;BMP280;54354;44.724;11.284;2023-07-13T03:24:14;101233.06;;;31.92
67509;BMP280;54354;44.724;11.284;2023-07-13T03:26:41;101237.06;;;31.91
67509;BMP280;54354;44.724;11.284;2023-07-13T03:29:06;101228.84;;;31.91
67509;BMP280;54354;44.724;11.284;2023-07-13T03:31:34;101223.56;;;31.86
67509;BMP280;54354;44.724;11.284;2023-07-13T03:34:00;101227.94;;;31.89
67509;BMP280;54354;44.724;11.284;2023-07-13T03:36:30;101225.59;;;31.85
67509;BMP280;54354;44.724;11.284;2023-07-13T03:39:02;101227.06;;;31.86
67509;BMP280;54354;44.724;11.284;2023-07-13T03:41:42;101227.59;;;31.92
67509;BMP280;54354;44.724;11.284;2023-07-13T03:44:08;101239.81;;;31.91
67509;BMP280;54354;44.724;11.284;2023-07-13T03:46:33;101261.03;;;31.91
67509;BMP280;54354;44.724;11.284;2023-07-13T03:48:59;101253.34;;;31.89
67509;BMP280;54354;44.724;11.284;2023-07-13T03:51:25;101255.53;;;31.91
67509;BMP280;54354;44.724;11.284;2023-07-13T03:53:51;101253.72;;;31.93
67509;BMP280;54354;44.724;11.284;2023-07-13T03:56:19;101241.28;;;31.92
67509;BMP280;54354;44.724;11.284;2023-07-13T03:58:47;101250.25;;;31.93
67509;BMP280;54354;44.724;11.284;2023-07-13T04:01:18;101264.66;;;31.93
67509;BMP280;54354;44.724;11.284;2023-07-13T04:03:44;101266.63;;;32.01
67509;BMP280;54354;44.724;11.284;2023-07-13T04:06:23;101276.88;;;32.00
67509;BMP280;54354;44.724;11.284;2023-07-13T04:08:52;101289.13;;;31.99
67509;BMP280;54354;44.724;11.284;2023-07-13T04:11:19;101288.00;;;31.94
67509;BMP280;54354;44.724;11.284;2023-07-13T04:13:45;101288.59;;;31.93
67509;BMP280;54354;44.724;11.284;2023-07-13T04:16:12;101300.63;;;31.98
67509;BMP280;54354;44.724;11.284;2023-07-13T04:18:38;101288.00;;;31.94
67509;BMP280;54354;44.724;11.284;2023-07-13T04:21:04;101292.97;;;31.88
67509;BMP280;54354;44.724;11.284;2023-07-13T04:23:29;101284.22;;;31.82
67509;BMP280;54354;44.724;11.284;2023-07-13T04:25:55;101289.53;;;31.80
67509;BMP280;54354;44.724;11.284;2023-07-13T04:28:22;101286.59;;;31.78
67509;BMP280;54354;44.724;11.284;2023-07-13T04:30:49;101302.66;;;31.82
67509;BMP280;54354;44.724;11.284;2023-07-13T04:33:15;101308.72;;;31.80
67509;BMP280;54354;44.724;11.284;2023-07-13T04:35:45;101309.81;;;31.77
67509;BMP280;54354;44.724;11.284;2023-07-13T04:38:12;101291.53;;;32.43
67509;BMP280;54354;44.724;11.284;2023-07-13T04:40:37;101308.69;;;31.95
67509;BMP280;54354;44.724;11.284;2023-07-13T04:43:03;101322.38;;;31.88
67509;BMP280;54354;44.724;11.284;2023-07-13T04:45:28;101325.47;;;31.84
67509;BMP280;54354;44.724;11.284;2023-07-13T04:47:56;101324.75;;;31.84
67509;BMP280;54354;44.724;11.284;2023-07-13T04:50:21;101313.81;;;31.84
67509;BMP280;54354;44.724;11.284;2023-07-13T04:52:49;101320.38;;;31.81
67509;BMP280;54354;44.724;11.284;2023-07-13T04:55:14;101318.91;;;31.80
67509;BMP280;54354;44.724;11.284;2023-07-13T04:57:40;101322.56;;;31.82
67509;BMP280;54354;44.724;11.284;2023-07-13T05:00:06;101314.19;;;31.80
67509;BMP280;54354;44.724;11.284;2023-07-13T05:02:33;101299.00;;;31.79
67509;BMP280;54354;44.724;11.284;2023-07-13T05:05:01;101293.38;;;31.77
67509;BMP280;54354;44.724;11.284;2023-07-13T05:07:26;101290.59;;;31.70
67509;BMP280;54354;44.724;11.284;2023-07-13T05:09:52;101300.66;;;31.67
67509;BMP280;54354;44.724;11.284;2023-07-13T05:12:18;101302.09;;;31.68
67509;BMP280;54354;44.724;11.284;2023-07-13T05:14:43;101307.03;;;31.70
67509;BMP280;54354;44.724;11.284;2023-07-13T05:17:09;101306.69;;;31.73
67509;BMP280;54354;44.724;11.284;2023-07-13T05:19:35;101307.78;;;31.78
67509;BMP280;54354;44.724;11.284;2023-07-13T05:22:00;101309.78;;;31.85
67509;BMP280;54354;44.724;11.284;2023-07-13T05:24:28;101308.69;;;31.88
67509;BMP280;54354;44.724;11.284;2023-07-13T05:26:53;101317.25;;;31.84
67509;BMP280;54354;44.724;11.284;2023-07-13T05:29:20;101311.97;;;31.79
67509;BMP280;54354;44.724;11.284;2023-07-13T05:31:46;101310.91;;;31.74
67509;BMP280;54354;44.724;11.284;2023-07-13T05:34:11;101315.63;;;31.74
67509;BMP280;54354;44.724;11.284;2023-07-13T05:36:37;101316.72;;;31.71
67509;BMP280;54354;44.724;11.284;2023-07-13T05:39:03;101313.06;;;31.68
67509;BMP280;54354;44.724;11.284;2023-07-13T05:41:29;101303.38;;;31.67
67509;BMP280;54354;44.724;11.284;2023-07-13T05:43:55;101303.03;;;31.71
67509;BMP280;54354;44.724;11.284;2023-07-13T05:46:20;101307.41;;;31.74
67509;BMP280;54354;44.724;11.284;2023-07-13T05:48:46;101312.53;;;31.77
67509;BMP280;54354;44.724;11.284;2023-07-13T05:51:11;101315.06;;;31.83
67509;BMP280;54354;44.724;11.284;2023-07-13T05:53:36;101314.53;;;31.84
67509;BMP280;54354;44.724;11.284;2023-07-13T05:56:02;101310.69;;;31.87
67509;BMP280;54354;44.724;11.284;2023-07-13T05:58:28;101311.59;;;31.90
67509;BMP280;54354;44.724;11.284;2023-07-13T06:01:05;101314.16;;;31.95
67509;BMP280;54354;44.724;11.284;2023-07-13T06:03:31;101315.06;;;31.98
67509;BMP280;54354;44.724;11.284;2023-07-13T06:05:57;101315.22;;;32.00
67509;BMP280;54354;44.724;11.284;2023-07-13T06:08:22;101312.13;;;32.04
67509;BMP280;54354;44.724;11.284;2023-07-13T06:10:48;101317.59;;;32.04
67509;BMP280;54354;44.724;11.284;2023-07-13T06:13:14;101332.41;;;32.01
67509;BMP280;54354;44.724;11.284;2023-07-13T06:15:39;101337.00;;;31.98
67509;BMP280;54354;44.724;11.284;2023-07-13T06:18:05;101329.50;;;31.99
67509;BMP280;54354;44.724;11.284;2023-07-13T06:20:33;101332.59;;;31.95
67509;BMP280;54354;44.724;11.284;2023-07-13T06:22:59;101343.91;;;32.07
67509;BMP280;54354;44.724;11.284;2023-07-13T06:25:26;101321.25;;;32.14
67509;BMP280;54354;44.724;11.284;2023-07-13T06:27:52;101318.13;;;32.25
67509;BMP280;54354;44.724;11.284;2023-07-13T06:30:17;101319.34;;;32.39
67509;BMP280;54354;44.724;11.284;2023-07-13T06:32:43;101321.13;;;32.52
67509;BMP280;54354;44.724;11.284;2023-07-13T06:35:08;101317.81;;;32.61
67509;BMP280;54354;44.724;11.284;2023-07-13T06:37:37;101319.94;;;32.70
67509;BMP280;54354;44.724;11.284;2023-07-13T06:40:03;101301.31;;;32.69
67509;BMP280;54354;44.724;11.284;2023-07-13T06:42:29;101307.53;;;32.69
67509;BMP280;54354;44.724;11.284;2023-07-13T06:44:54;101311.34;;;32.74
67509;BMP280;54354;44.724;11.284;2023-07-13T06:47:22;101312.97;;;32.77
67509;BMP280;54354;44.724;11.284;2023-07-13T06:49:48;101325.69;;;32.89
67509;BMP280;54354;44.724;11.284;2023-07-13T06:52:13;101331.16;;;32.97
67509;BMP280;54354;44.724;11.284;2023-07-13T06:54:39;101334.59;;;33.05
67509;BMP280;54354;44.724;11.284;2023-07-13T06:57:05;101336.53;;;33.12
67509;BMP280;54354;44.724;11.284;2023-07-13T06:59:30;101326.63;;;33.17
67509;BMP280;54354;44.724;11.284;2023-07-13T07:01:56;101310.69;;;33.23
67509;BMP280;54354;44.724;11.284;2023-07-13T07:04:21;101327.06;;;33.30
67509;BMP280;54354;44.724;11.284;2023-07-13T07:06:47;101341.66;;;33.41
67509;BMP280;54354;44.724;11.284;2023-07-13T07:09:12;101343.03;;;33.49
67509;BMP280;54354;44.724;11.284;2023-07-13T07:11:38;101333.44;;;33.58
67509;BMP280;54354;44.724;11.284;2023-07-13T07:14:04;101322.63;;;33.60
67509;BMP280;54354;44.724;11.284;2023-07-13T07:16:30;101332.31;;;33.61
67509;BMP280;54354;44.724;11.284;2023-07-13T07:18:55;101353.91;;;33.64
67509;BMP280;54354;44.724;11.284;2023-07-13T07:21:21;101342.31;;;33.74
67509;BMP280;54354;44.724;11.284;2023-07-13T07:23:48;101326.06;;;33.68
67509;BMP280;54354;44.724;11.284;2023-07-13T07:26:14;101327.19;;;33.65
67509;BMP280;54354;44.724;11.284;2023-07-13T07:28:40;101327.56;;;33.61
67509;BMP280;54354;44.724;11.284;2023-07-13T07:31:06;101328.44;;;33.64
67509;BMP280;54354;44.724;11.284;2023-07-13T07:33:33;101312.38;;;33.60
67509;BMP280;54354;44.724;11.284;2023-07-13T07:35:59;101312.38;;;33.60
67509;BMP280;54354;44.724;11.284;2023-07-13T07:38:25;101329.25;;;33.57
67509;BMP280;54354;44.724;11.284;2023-07-13T07:40:50;101344.28;;;33.56
67509;BMP280;54354;44.724;11.284;2023-07-13T07:43:16;101335.88;;;33.54
67509;BMP280;54354;44.724;11.284;2023-07-13T07:45:41;101313.59;;;33.50
67509;BMP280;54354;44.724;11.284;2023-07-13T07:48:07;101326.41;;;33.47
67509;BMP280;54354;44.724;11.284;2023-07-13T07:50:35;101348.19;;;33.45
67509;BMP280;54354;44.724;11.284;2023-07-13T07:53:00;101363.06;;;33.42
67509;BMP280;54354;44.724;11.284;2023-07-13T07:55:27;101364.25;;;33.31
67509;BMP280;54354;44.724;11.284;2023-07-13T07:57:53;101357.47;;;33.25
67509;BMP280;54354;44.724;11.284;2023-07-13T08:00:19;101348.94;;;33.21
67509;BMP280;54354;44.724;11.284;2023-07-13T08:02:45;101336.88;;;33.16
67509;BMP280;54354;44.724;11.284;2023-07-13T08:05:11;101333.25;;;33.14
67509;BMP280;54354;44.724;11.284;2023-07-13T08:07:38;101332.00;;;33.07
67509;BMP280;54354;44.724;11.284;2023-07-13T08:10:05;101326.34;;;33.05
67509;BMP280;54354;44.724;11.284;2023-07-13T08:12:34;101314.09;;;32.98
67509;BMP280;54354;44.724;11.284;2023-07-13T08:15:00;101320.28;;;33.07
67509;BMP280;54354;44.724;11.284;2023-07-13T08:17:26;101305.50;;;33.02
67509;BMP280;54354;44.724;11.284;2023-07-13T08:19:51;101310.47;;;32.96
67509;BMP280;54354;44.724;11.284;2023-07-13T08:22:17;101315.84;;;32.86
67509;BMP280;54354;44.724;11.284;2023-07-13T08:24:42;101320.78;;;32.80
67509;BMP280;54354;44.724;11.284;2023-07-13T08:27:10;101302.75;;;32.70
67509;BMP280;54354;44.724;11.284;2023-07-13T08:29:37;101300.22;;;32.64
67509;BMP280;54354;44.724;11.284;2023-07-13T08:32:02;101320.16;;;32.64
67509;BMP280;54354;44.724;11.284;2023-07-13T08:34:28;101343.03;;;32.59
67509;BMP280;54354;44.724;11.284;2023-07-13T08:36:53;101346.88;;;32.56
67509;BMP280;54354;44.724;11.284;2023-07-13T08:39:19;101345.63;;;32.50
67509;BMP280;54354;44.724;11.284;2023-07-13T08:41:47;101331.59;;;32.38
67509;BMP280;54354;44.724;11.284;2023-07-13T08:44:51;101330.66;;;32.43
67509;BMP280;54354;44.724;11.284;2023-07-13T08:47:21;101327.81;;;32.26
67509;BMP280;54354;44.724;11.284;2023-07-13T08:49:48;101380.59;;;32.26
67509;BMP280;54354;44.724;11.284;2023-07-13T08:52:55;101378.06;;;32.21
67509;BMP280;54354;44.724;11.284;2023-07-13T08:55:08;101343.34;;;32.16
67509;BMP280;54354;44.724;11.284;2023-07-13T08:57:35;101336.59;;;32.17
67509;BMP280;54354;44.724;11.284;2023-07-13T09:00:01;101342.25;;;32.11
67509;BMP280;54354;44.724;11.284;2023-07-13T09:02:46;101337.13;;;32.15
67509;BMP280;54354;44.724;11.284;2023-07-13T09:05:17;101336.78;;;32.04
67509;BMP280;54354;44.724;11.284;2023-07-13T09:10:30;101345.53;;;32.17
67509;BMP280;54354;44.724;11.284;2023-07-13T09:15:48;101384.81;;;32.12
67509;BMP280;54354;44.724;11.284;2023-07-13T09:21:04;101426.13;;;31.99
67509;BMP280;54354;44.724;11.284;2023-07-13T09:23:31;101418.28;;;31.95
67509;BMP280;54354;44.724;11.284;2023-07-13T09:26:16;101357.44;;;31.89
67509;BMP280;54354;44.724;11.284;2023-07-13T09:28:45;101283.63;;;31.91
67509;BMP280;54354;44.724;11.284;2023-07-13T09:31:16;101260.66;;;31.87
67509;BMP280;54354;44.724;11.284;2023-07-13T09:33:43;101264.66;;;31.93
67509;BMP280;54354;44.724;11.284;2023-07-13T09:36:18;101305.75;;;31.93
67509;BMP280;54354;44.724;11.284;2023-07-13T09:38:45;101319.97;;;32.00
67509;BMP280;54354;44.724;11.284;2023-07-13T09:46:38;101359.81;;;31.93
67509;BMP280;54354;44.724;11.284;2023-07-13T09:49:04;101414.06;;;31.87
67509;BMP280;54354;44.724;11.284;2023-07-13T09:51:29;101431.75;;;31.86
67509;BMP280;54354;44.724;11.284;2023-07-13T09:53:55;101433.03;;;31.85
67509;BMP280;54354;44.724;11.284;2023-07-13T09:56:24;101417.69;;;31.82
67509;BMP280;54354;44.724;11.284;2023-07-13T09:58:51;101435.44;;;31.88
67509;BMP280;54354;44.724;11.284;2023-07-13T10:01:32;101439.25;;;31.85
67509;BMP280;54354;44.724;11.284;2023-07-13T10:03:58;101451.50;;;31.84
67509;BMP280;54354;44.724;11.284;2023-07-13T10:06:24;101456.25;;;31.84
67509;BMP280;54354;44.724;11.284;2023-07-13T10:08:52;101435.78;;;31.77
67509;BMP280;54354;44.724;11.284;2023-07-13T10:11:29;101411.66;;;31.76
67509;BMP280;54354;44.724;11.284;2023-07-13T10:13:56;101410.38;;;31.77
67509;BMP280;54354;44.724;11.284;2023-07-13T10:16:24;101410.75;;;31.73
67509;BMP280;54354;44.724;11.284;2023-07-13T10:19:27;101401.09;;;31.95
67509;BMP280;54354;44.724;11.284;2023-07-13T10:22:01;101393.06;;;31.82
67509;BMP280;54354;44.724;11.284;2023-07-13T10:24:33;101405.47;;;31.90
67509;BMP280;54354;44.724;11.284;2023-07-13T10:27:20;101429.59;;;32.07
67509;BMP280;54354;44.724;11.284;2023-07-13T10:32:37;101437.22;;;32.24
67509;BMP280;54354;44.724;11.284;2023-07-13T10:35:03;101440.19;;;32.26
67509;BMP280;54354;44.724;11.284;2023-07-13T10:37:49;101434.34;;;32.37
67509;BMP280;54354;44.724;11.284;2023-07-13T10:40:25;101440.53;;;32.38
67509;BMP280;54354;44.724;11.284;2023-07-13T10:42:56;101439.41;;;32.41
67509;BMP280;54354;44.724;11.284;2023-07-13T10:45:23;101448.19;;;32.47
67509;BMP280;54354;44.724;11.284;2023-07-13T10:47:51;101442.13;;;32.48
67509;BMP280;54354;44.724;11.284;2023-07-13T10:50:21;101434.13;;;32.50
67509;BMP280;54354;44.724;11.284;2023-07-13T10:52:52;101416.53;;;32.53
67509;BMP280;54354;44.724;11.284;2023-07-13T10:58:29;101413.59;;;32.67
67509;BMP280;54354;44.724;11.284;2023-07-13T11:03:32;101400.72;;;32.84
67509;BMP280;54354;44.724;11.284;2023-07-13T11:06:34;101385.03;;;33.10
67509;BMP280;54354;44.724;11.284;2023-07-13T11:11:47;101378.50;;;33.30
67509;BMP280;54354;44.724;11.284;2023-07-13T11:15:15;101378.59;;;33.47
67509;BMP280;54354;44.724;11.284;2023-07-13T11:17:53;101368.91;;;33.63
67509;BMP280;54354;44.724;11.284;2023-07-13T11:20:32;101363.63;;;33.65
67509;BMP280;54354;44.724;11.284;2023-07-13T11:25:37;101365.25;;;33.86
67509;BMP280;54354;44.724;11.284;2023-07-13T11:40:55;101349.75;;;33.98
67509;BMP280;54354;44.724;11.284;2023-07-13T11:43:22;101337.88;;;33.95
67509;BMP280;54354;44.724;11.284;2023-07-13T11:45:51;101342.41;;;34.00
67509;BMP280;54354;44.724;11.284;2023-07-13T11:50:50;101341.56;;;33.90
67509;BMP280;54354;44.724;11.284;2023-07-13T11:53:16;101336.56;;;33.96
67509;BMP280;54354;44.724;11.284;2023-07-13T11:55:42;101338.16;;;33.99
67509;BMP280;54354;44.724;11.284;2023-07-13T11:58:09;101334.53;;;33.97
67509;BMP280;54354;44.724;11.284;2023-07-13T12:00:37;101326.63;;;34.01
67509;BMP280;54354;44.724;11.284;2023-07-13T12:03:04;101330.50;;;33.98
67509;BMP280;54354;44.724;11.284;2023-07-13T12:05:31;101330.00;;;33.92
67509;BMP280;54354;44.724;11.284;2023-07-13T12:07:57;101323.09;;;33.91
67509;BMP280;54354;44.724;11.284;2023-07-13T12:10:30;101313.94;;;33.88
67509;BMP280;54354;44.724;11.284;2023-07-13T12:13:01;101321.97;;;33.94
67509;BMP280;54354;44.724;11.284;2023-07-13T12:15:43;101314.25;;;33.92
67509;BMP280;54354;44.724;11.284;2023-07-13T12:18:15;101309.88;;;33.89
67509;BMP280;54354;44.724;11.284;2023-07-13T12:20:41;101315.47;;;33.99
67509;BMP280;54354;44.724;11.284;2023-07-13T12:23:25;101299.63;;;34.07
67509;BMP280;54354;44.724;11.284;2023-07-13T12:25:53;101301.91;;;34.01
67509;BMP280;54354;44.724;11.284;2023-07-13T12:28:51;101296.47;;;33.93
67509;BMP280;54354;44.724;11.284;2023-07-13T12:31:36;101298.88;;;33.89
67509;BMP280;54354;44.724;11.284;2023-07-13T12:34:15;101296.47;;;33.93
67509;BMP280;54354;44.724;11.284;2023-07-13T12:36:59;101292.81;;;34.08
67509;BMP280;54354;44.724;11.284;2023-07-13T12:39:37;101278.94;;;34.06
67509;BMP280;54354;44.724;11.284;2023-07-13T12:42:19;101286.28;;;34.04
67509;BMP280;54354;44.724;11.284;2023-07-13T12:44:47;101297.28;;;34.04
67509;BMP280;54354;44.724;11.284;2023-07-13T12:47:14;101280.81;;;34.04
67509;BMP280;54354;44.724;11.284;2023-07-13T12:49:47;101285.16;;;34.07
67509;BMP280;54354;44.724;11.284;2023-07-13T12:52:20;101276.09;;;34.14
67509;BMP280;54354;44.724;11.284;2023-07-13T12:54:57;101263.53;;;34.20
67509;BMP280;54354;44.724;11.284;2023-07-13T12:57:24;101264.91;;;34.29
67509;BMP280;54354;44.724;11.284;2023-07-13T12:59:54;101259.25;;;34.27
67509;BMP280;54354;44.724;11.284;2023-07-13T13:02:35;101253.66;;;34.34
67509;BMP280;54354;44.724;11.284;2023-07-13T13:05:02;101251.56;;;34.25
67509;BMP280;54354;44.724;11.284;2023-07-13T13:07:29;101261.53;;;34.21
67509;BMP280;54354;44.724;11.284;2023-07-13T13:09:55;101258.78;;;34.21
67509;BMP280;54354;44.724;11.284;2023-07-13T13:12:22;101252.00;;;34.22
67509;BMP280;54354;44.724;11.284;2023-07-13T13:14:47;101255.75;;;34.26
67509;BMP280;54354;44.724;11.284;2023-07-13T13:17:20;101245.91;;;34.23
67509;BMP280;54354;44.724;11.284;2023-07-13T13:19:47;101243.31;;;34.25
67509;BMP280;54354;44.724;11.284;2023-07-13T13:22:12;101239.81;;;34.25
67509;BMP280;54354;44.724;11.284;2023-07-13T13:24:39;101238.41;;;34.24
67509;BMP280;54354;44.724;11.284;2023-07-13T13:27:04;101243.66;;;34.29
67509;BMP280;54354;44.724;11.284;2023-07-13T13:29:36;101231.91;;;34.29
67509;BMP280;54354;44.724;11.284;2023-07-13T13:32:04;101229.34;;;34.41
67509;BMP280;54354;44.724;11.284;2023-07-13T13:34:30;101230.69;;;34.40
67509;BMP280;54354;44.724;11.284;2023-07-13T13:36:56;101223.13;;;34.40
67509;BMP280;54354;44.724;11.284;2023-07-13T13:39:29;101216.59;;;34.35
67509;BMP280;54354;44.724;11.284;2023-07-13T13:41:58;101218.94;;;34.39
67509;BMP280;54354;44.724;11.284;2023-07-13T13:44:23;101211.69;;;34.34
67509;BMP280;54354;44.724;11.284;2023-07-13T13:46:52;101205.16;;;34.29
67509;BMP280;54354;44.724;11.284;2023-07-13T13:49:23;101206.75;;;34.32
67509;BMP280;54354;44.724;11.284;2023-07-13T13:51:50;101207.47;;;34.33
67509;BMP280;54354;44.724;11.284;2023-07-13T13:54:17;101197.94;;;34.34
67509;BMP280;54354;44.724;11.284;2023-07-13T13:56:44;101195.34;;;34.36
67509;BMP280;54354;44.724;11.284;2023-07-13T13:59:11;101200.97;;;34.38
67509;BMP280;54354;44.724;11.284;2023-07-13T14:01:37;101202.84;;;34.35
67509;BMP280;54354;44.724;11.284;2023-07-13T14:04:04;101194.44;;;34.33
67509;BMP280;54354;44.724;11.284;2023-07-13T14:06:31;101199.06;;;34.31
67509;BMP280;54354;44.724;11.284;2023-07-13T14:08:57;101206.03;;;34.32
67509;BMP280;54354;44.724;11.284;2023-07-13T14:11:23;101212.41;;;34.34
67509;BMP280;54354;44.724;11.284;2023-07-13T14:13:52;101208.59;;;34.30
67509;BMP280;54354;44.724;11.284;2023-07-13T14:16:20;101217.59;;;34.30
67509;BMP280;54354;44.724;11.284;2023-07-13T14:18:47;101221.47;;;34.27
67509;BMP280;54354;44.724;11.284;2023-07-13T14:21:13;101221.78;;;34.31
67509;BMP280;54354;44.724;11.284;2023-07-13T14:23:40;101222.84;;;34.36
67509;BMP280;54354;44.724;11.284;2023-07-13T14:26:14;101227.94;;;34.40
67509;BMP280;54354;44.724;11.284;2023-07-13T14:28:46;101231.84;;;34.46
67509;BMP280;54354;44.724;11.284;2023-07-13T14:31:13;101234.19;;;34.50
67509;BMP280;54354;44.724;11.284;2023-07-13T14:33:39;101242.75;;;34.54
67509;BMP280;54354;44.724;11.284;2023-07-13T14:38:43;101240.03;;;34.63
67509;BMP280;54354;44.724;11.284;2023-07-13T14:41:08;101245.69;;;34.65
67509;BMP280;54354;44.724;11.284;2023-07-13T14:43:34;101234.28;;;34.69